Time,TemperatureF,DewpointF,PressureIn,WindDirection,WindDirectionDegrees,WindSpeedMPH,WindSpeedGustMPH,Humidity,HourlyPrecipIn,Conditions,Clouds,dailyrainin,SoftwareType,DateUTC
2013-12-13 00:12:00,17.0,-99.9,-100.00,NW,307,2.0,3.0,-999,-99.99,,,-99.99,,2013-12-13 08:12:00,
2013-12-13 01:12:00,13.0,-99.9,-100.00,West,280,2.0,3.0,-999,-99.99,,,-99.99,,2013-12-13 09:12:00,
2013-12-13 02:12:00,15.0,-99.9,-100.00,NNW,338,3.0,3.0,-999,-99.99,,,-99.99,,2013-12-13 10:12:00,
2013-12-13 03:12:00,18.0,-99.9,-100.00,ENE,65,2.0,3.0,-999,-99.99,,,-99.99,,2013-12-13 11:12:00,
2013-12-13 04:12:00,19.0,-99.9,-100.00,SSE,150,3.0,3.0,-999,-99.99,,,-99.99,,2013-12-13 12:12:00,
2013-12-13 06:12:00,20.0,-99.9,-100.00,SW,214,2.0,3.0,-999,-99.99,,,-99.99,,2013-12-13 14:12:00,
2013-12-13 07:12:00,16.0,-99.9,-100.00,South,169,3.0,3.0,-999,-99.99,,,-99.99,,2013-12-13 15:12:00,
2013-12-13 08:13:00,12.0,-99.9,-100.00,SSE,167,3.0,3.0,-999,-99.99,,,-99.99,,2013-12-13 16:13:00,
2013-12-13 09:12:00,12.0,-99.9,-100.00,WNW,300,2.0,3.0,-999,-99.99,,,-99.99,,2013-12-13 17:12:00,
2013-12-13 10:12:00,21.0,-99.9,-100.00,NW,314,3.0,5.0,-999,-99.99,,,-99.99,,2013-12-13 18:12:00,
2013-12-13 11:12:00,27.0,-99.9,-100.00,NW,310,3.0,3.0,-999,-99.99,,,-99.99,,2013-12-13 19:12:00,
2013-12-13 12:12:00,31.0,-99.9,-100.00,WNW,286,2.0,3.0,-999,-99.99,,,-99.99,,2013-12-13 20:12:00,
2013-12-13 13:11:00,34.0,-99.9,-100.00,East,95,3.0,6.0,-999,-99.99,,,-99.99,,2013-12-13 21:11:00,
2013-12-13 14:13:00,36.0,-99.9,-100.00,ENE,74,3.0,6.0,-999,-99.99,,,-99.99,,2013-12-13 22:13:00,
2013-12-13 15:12:00,37.0,-99.9,-100.00,East,90,3.0,5.0,-999,-99.99,,,-99.99,,2013-12-13 23:12:00,
2013-12-13 16:11:00,38.0,-99.9,-100.00,NW,317,2.0,3.0,-999,-99.99,,,-99.99,,2013-12-14 00:11:00,
2013-12-13 17:11:00,29.0,-99.9,-100.00,NNW,337,3.0,6.0,-999,-99.99,,,-99.99,,2013-12-14 01:11:00,
2013-12-13 18:12:00,25.0,-99.9,-100.00,West,271,6.0,7.0,-999,-99.99,,,-99.99,,2013-12-14 02:12:00,
2013-12-13 19:12:00,22.0,-99.9,-100.00,WNW,285,5.0,6.0,-999,-99.99,,,-99.99,,2013-12-14 03:12:00,
2013-12-13 20:13:00,23.0,-99.9,-100.00,NNW,339,2.0,3.0,-999,-99.99,,,-99.99,,2013-12-14 04:13:00,
2013-12-13 21:12:00,24.0,-99.9,-100.00,NW,315,2.0,3.0,-999,-99.99,,,-99.99,,2013-12-14 05:12:00,
2013-12-13 22:12:00,22.0,-99.9,-100.00,NW,306,6.0,7.0,-999,-99.99,,,-99.99,,2013-12-14 06:12:00,
2013-12-13 23:12:00,21.0,-99.9,-100.00,West,272,2.0,3.0,-999,-99.99,,,-99.99,,2013-12-14 07:12:00,